createdAt,value
2018-06-05T00:02:27.681Z,98699.25
2018-06-05T00:05:02.013Z,98702.91
2018-06-05T00:07:36.647Z,98695.78
2018-06-05T00:10:11.163Z,98693.27
2018-06-05T00:12:45.552Z,98693.84
2018-06-05T00:15:19.892Z,98690.96
2018-06-05T00:17:54.636Z,98687.58
2018-06-05T00:20:29.053Z,98686.78
2018-06-05T00:23:03.319Z,98690.30
2018-06-05T00:25:37.632Z,98680.05
2018-06-05T00:28:12.064Z,98683.72
2018-06-05T00:30:46.342Z,98674.34
2018-06-05T00:33:20.759Z,98670.33
2018-06-05T00:35:54.967Z,98673.48
2018-06-05T00:38:29.308Z,98672.39
2018-06-05T00:41:03.649Z,98678.75
2018-06-05T00:43:37.984Z,98677.90
2018-06-05T00:46:12.371Z,98677.66
2018-06-05T00:48:46.801Z,98679.93
2018-06-05T00:51:32.547Z,98681.08
2018-06-05T00:54:06.948Z,98679.36
2018-06-05T00:56:48.159Z,98682.14
2018-06-05T00:59:22.508Z,98682.52
2018-06-05T01:01:56.831Z,98690.30
2018-06-05T01:04:31.133Z,98684.11
2018-06-05T01:07:05.666Z,98676.10
2018-06-05T01:09:40.116Z,98678.92
2018-06-05T01:12:14.470Z,98688.36
2018-06-05T01:14:48.866Z,98683.40
2018-06-05T01:17:23.203Z,98686.22
2018-06-05T01:19:57.571Z,98683.62
2018-06-05T01:22:32.003Z,98690.25
2018-06-05T01:25:06.472Z,98686.84
2018-06-05T01:27:40.923Z,98694.80
2018-06-05T01:30:15.186Z,98691.19
2018-06-05T01:32:49.832Z,98692.55
2018-06-05T01:35:24.234Z,98695.47
2018-06-05T01:37:58.559Z,98696.36
2018-06-05T01:40:32.817Z,98694.06
2018-06-05T01:43:07.027Z,98693.48
2018-06-05T01:45:41.472Z,98697.95
2018-06-05T01:48:15.823Z,98694.86
2018-06-05T01:50:50.250Z,98686.61
2018-06-05T01:53:31.279Z,98681.77
2018-06-05T01:56:05.759Z,98683.16
2018-06-05T01:58:40.176Z,98693.34
2018-06-05T02:01:14.609Z,98700.06
2018-06-05T02:03:48.987Z,98692.55
2018-06-05T02:06:23.279Z,98698.09
2018-06-05T02:08:57.698Z,98705.38
2018-06-05T02:11:32.064Z,98704.91
2018-06-05T02:14:06.468Z,98709.83
2018-06-05T02:16:40.860Z,98706.86
2018-06-05T02:19:15.166Z,98710.93
2018-06-05T02:21:49.897Z,98712.13
2018-06-05T02:24:24.244Z,98719.69
2018-06-05T02:26:58.599Z,98720.89
2018-06-05T02:29:32.883Z,98716.41
2018-06-05T02:32:07.232Z,98709.82
2018-06-05T02:34:41.544Z,98713.36
2018-06-05T02:37:15.876Z,98704.44
2018-06-05T02:39:50.387Z,98708.86
2018-06-05T02:42:24.743Z,98714.91
2018-06-05T02:44:59.351Z,98720.09
2018-06-05T02:47:33.787Z,98720.48
2018-06-05T02:50:08.103Z,98722.17
2018-06-05T02:52:42.516Z,98721.73
2018-06-05T02:55:16.996Z,98717.25
2018-06-05T02:57:51.379Z,98720.31
2018-06-05T03:00:25.756Z,98717.61
2018-06-05T03:03:00.051Z,98712.65
2018-06-05T03:05:34.280Z,98719.59
2018-06-05T03:08:08.643Z,98722.12
2018-06-05T03:10:42.997Z,98723.30
2018-06-05T03:13:17.416Z,98732.41
2018-06-05T03:15:51.776Z,98732.06
2018-06-05T03:18:26.260Z,98729.13
2018-06-05T03:21:00.620Z,98733.84
2018-06-05T03:23:35.195Z,98733.39
2018-06-05T03:26:09.608Z,98730.73
2018-06-05T03:28:43.964Z,98731.39
2018-06-05T03:31:18.351Z,98732.22
2018-06-05T03:33:52.739Z,98732.06
2018-06-05T03:36:27.011Z,98737.15
2018-06-05T03:39:01.415Z,98737.77
2018-06-05T03:41:35.807Z,98739.52
2018-06-05T03:44:10.164Z,98737.09
2018-06-05T03:46:44.509Z,98736.84
2018-06-05T03:49:18.844Z,98731.05
2018-06-05T03:51:53.130Z,98737.41
2018-06-05T03:54:27.467Z,98735.69
2018-06-05T03:57:01.819Z,98730.39
2018-06-05T03:59:36.199Z,98735.17
2018-06-05T04:02:10.576Z,98732.91
2018-06-05T04:04:44.864Z,98733.39
2018-06-05T04:07:19.240Z,98736.75
2018-06-05T04:09:53.640Z,98729.77
2018-06-05T04:12:28.064Z,98737.24
2018-06-05T04:15:02.458Z,98738.61
2018-06-05T04:17:36.814Z,98744.09
2018-06-05T04:20:11.199Z,98744.09
2018-06-05T04:22:45.647Z,98738.03
2018-06-05T04:25:20.272Z,98745.64
2018-06-05T04:27:54.645Z,98739.52
2018-06-05T04:30:28.995Z,98745.84
2018-06-05T04:33:03.364Z,98745.27
2018-06-05T04:35:37.723Z,98750.68
2018-06-05T04:38:12.108Z,98745.58
2018-06-05T04:40:46.753Z,98751.70
2018-06-05T04:43:21.192Z,98748.42
2018-06-05T04:45:55.631Z,98749.39
2018-06-05T04:48:30.040Z,98745.41
2018-06-05T04:51:04.561Z,98752.57
2018-06-05T04:53:38.941Z,98747.80
2018-06-05T04:56:13.304Z,98753.85
2018-06-05T04:58:47.583Z,98755.62
2018-06-05T05:01:21.906Z,98744.37
2018-06-05T05:03:56.163Z,98749.43
2018-06-05T05:06:30.539Z,98748.57
2018-06-05T05:09:06.744Z,98752.98
2018-06-05T05:11:41.088Z,98753.05
2018-06-05T05:14:15.459Z,98760.41
2018-06-05T05:16:50.080Z,98761.56
2018-06-05T05:19:24.385Z,98761.03
2018-06-05T05:21:58.886Z,98755.94
2018-06-05T05:24:33.199Z,98758.11
2018-06-05T05:27:07.886Z,98761.29
2018-06-05T05:29:42.122Z,98762.44
2018-06-05T05:32:16.806Z,98764.17
2018-06-05T05:34:51.159Z,98765.98
2018-06-05T05:37:25.572Z,98764.91
2018-06-05T05:39:59.959Z,98768.52
2018-06-05T05:42:34.318Z,98763.77
2018-06-05T05:45:08.915Z,98756.94
2018-06-05T05:47:43.288Z,98760.81
2018-06-05T05:50:17.707Z,98756.61
2018-06-05T05:52:51.976Z,98763.80
2018-06-05T05:55:26.355Z,98768.02
2018-06-05T05:58:00.691Z,98757.70
2018-06-05T06:00:35.132Z,98759.65
2018-06-05T06:03:09.732Z,98759.50
2018-06-05T06:05:44.041Z,98754.81
2018-06-05T06:08:18.440Z,98753.44
2018-06-05T06:10:52.821Z,98764.20
2018-06-05T06:13:27.287Z,98761.24
2018-06-05T06:16:01.719Z,98763.12
2018-06-05T06:18:36.030Z,98762.04
2018-06-05T06:21:10.455Z,98760.09
2018-06-05T06:23:44.887Z,98767.61
2018-06-05T06:26:19.279Z,98768.14
2018-06-05T06:28:53.723Z,98768.86
2018-06-05T06:31:28.131Z,98767.63
2018-06-05T06:34:02.819Z,98766.61
2018-06-05T06:36:37.288Z,98777.97
2018-06-05T06:39:11.671Z,98780.94
2018-06-05T06:41:46.007Z,98784.19
2018-06-05T06:44:20.424Z,98781.00
2018-06-05T06:46:54.835Z,98781.80
2018-06-05T06:49:29.595Z,98782.66
2018-06-05T06:52:03.872Z,98786.20
2018-06-05T06:54:38.219Z,98783.23
2018-06-05T06:57:12.636Z,98784.23
2018-06-05T06:59:47.063Z,98788.73
2018-06-05T07:02:21.306Z,98784.31
2018-06-05T07:04:55.583Z,98790.83
2018-06-05T07:07:29.940Z,98791.57
2018-06-05T07:10:04.463Z,98785.03
2018-06-05T07:12:38.954Z,98789.19
2018-06-05T07:15:13.288Z,98790.41
2018-06-05T07:17:47.495Z,98790.96
2018-06-05T07:20:21.845Z,98800.81
2018-06-05T07:22:56.050Z,98797.18
2018-06-05T07:25:30.365Z,98797.73
2018-06-05T07:28:04.678Z,98794.02
2018-06-05T07:30:39.123Z,98789.01
2018-06-05T07:33:13.416Z,98796.41
2018-06-05T07:35:47.858Z,98800.27
2018-06-05T07:38:22.685Z,98800.83
2018-06-05T07:40:57.123Z,98801.25
2018-06-05T07:43:31.486Z,98803.42
2018-06-05T07:46:06.204Z,98811.30
2018-06-05T07:48:40.683Z,98806.41
2018-06-05T07:51:15.021Z,98802.41
2018-06-05T07:53:49.299Z,98805.71
2018-06-05T07:56:23.788Z,98806.41
2018-06-05T07:58:58.142Z,98805.65
2018-06-05T08:01:32.614Z,98808.31
2018-06-05T08:04:07.088Z,98805.59
2018-06-05T08:06:41.724Z,98815.73
2018-06-05T08:09:16.225Z,98811.16
2018-06-05T08:11:50.696Z,98816.99
2018-06-05T08:14:25.131Z,98812.59
2018-06-05T08:16:59.724Z,98815.64
2018-06-05T08:19:34.300Z,98813.84
2018-06-05T08:22:08.719Z,98814.85
2018-06-05T08:24:43.289Z,98816.08
2018-06-05T08:27:17.884Z,98816.88
2018-06-05T08:29:52.241Z,98812.46
2018-06-05T08:32:26.772Z,98818.48
2018-06-05T08:35:01.391Z,98813.05
2018-06-05T08:37:35.953Z,98815.17
2018-06-05T08:40:10.404Z,98818.79
2018-06-05T08:42:51.481Z,98816.33
2018-06-05T08:45:26.268Z,98814.61
2018-06-05T08:48:00.909Z,98815.69
2018-06-05T08:50:35.476Z,98815.95
2018-06-05T08:53:09.997Z,98820.62
2018-06-05T08:55:44.520Z,98821.86
2018-06-05T08:58:19.116Z,98827.14
2018-06-05T09:00:53.444Z,98831.47
2018-06-05T09:03:27.898Z,98833.22
2018-06-05T09:06:02.469Z,98831.91
2018-06-05T09:08:36.780Z,98840.58
2018-06-05T09:11:11.196Z,98840.23
2018-06-05T09:13:45.620Z,98841.52
2018-06-05T09:16:19.991Z,98838.27
2018-06-05T09:18:54.345Z,98844.02
2018-06-05T09:21:28.692Z,98841.05
2018-06-05T09:24:03.180Z,98837.19
2018-06-05T09:26:37.672Z,98840.11
2018-06-05T09:29:12.367Z,98840.75
2018-06-05T09:31:47.044Z,98841.61
2018-06-05T09:34:21.679Z,98846.20
2018-06-05T09:36:56.306Z,98850.55
2018-06-05T09:39:30.778Z,98846.91
2018-06-05T09:42:05.157Z,98853.49
2018-06-05T09:44:39.599Z,98854.03
2018-06-05T09:47:14.191Z,98855.54
2018-06-05T09:49:48.636Z,98856.57
2018-06-05T09:52:23.242Z,98848.48
2018-06-05T09:54:57.756Z,98863.30
2018-06-05T09:57:32.213Z,98854.51
2018-06-05T10:00:06.769Z,98849.50
2018-06-05T10:02:41.243Z,98860.83
2018-06-05T10:05:15.663Z,98858.85
2018-06-05T10:07:50.200Z,98857.16
2018-06-05T10:10:24.689Z,98857.71
2018-06-05T10:12:59.100Z,98856.25
2018-06-05T10:15:33.704Z,98855.52
2018-06-05T10:18:08.144Z,98853.28
2018-06-05T10:20:42.493Z,98855.02
2018-06-05T10:23:16.900Z,98854.39
2018-06-05T10:25:51.456Z,98850.96
2018-06-05T10:28:25.854Z,98849.62
2018-06-05T10:31:00.324Z,98850.00
2018-06-05T10:33:34.808Z,98840.80
2018-06-05T10:36:09.268Z,98844.67
2018-06-05T10:38:43.913Z,98848.52
2018-06-05T10:41:18.493Z,98846.53
2018-06-05T10:43:52.880Z,98849.06
2018-06-05T10:46:27.308Z,98844.49
2018-06-05T10:49:01.710Z,98844.23
2018-06-05T10:51:36.061Z,98841.75
2018-06-05T10:54:10.810Z,98840.30
2018-06-05T10:56:45.288Z,98842.38
2018-06-05T10:59:19.857Z,98833.49
2018-06-05T11:01:54.216Z,98835.78
2018-06-05T11:04:28.676Z,98835.60
2018-06-05T11:07:03.200Z,98833.79
2018-06-05T11:09:37.808Z,98834.07
2018-06-05T11:12:12.172Z,98828.11
2018-06-05T11:14:46.437Z,98833.88
2018-06-05T11:17:20.962Z,98823.71
2018-06-05T11:19:55.335Z,98819.37
2018-06-05T11:22:29.981Z,98821.69
2018-06-05T11:25:04.597Z,98819.72
2018-06-05T11:27:39.108Z,98821.18
2018-06-05T11:30:13.455Z,98825.02
2018-06-05T11:32:47.978Z,98815.83
2018-06-05T11:35:22.893Z,98821.83
2018-06-05T11:37:57.223Z,98816.34
2018-06-05T11:40:31.585Z,98826.45
2018-06-05T11:43:06.004Z,98820.23
2018-06-05T11:45:40.396Z,98819.05
2018-06-05T11:48:14.783Z,98821.34
2018-06-05T11:50:49.193Z,98818.98
2018-06-05T11:53:23.809Z,98814.03
2018-06-05T11:55:58.221Z,98807.89
2018-06-05T11:58:32.612Z,98808.98
2018-06-05T12:01:07.097Z,98803.07
2018-06-05T12:03:41.497Z,98801.08
2018-06-05T12:06:16.176Z,98800.78
2018-06-05T12:08:50.760Z,98797.28
2018-06-05T12:11:25.165Z,98800.95
2018-06-05T12:13:59.590Z,98798.86
2018-06-05T12:16:34.153Z,98789.51
2018-06-05T12:19:08.696Z,98792.57
2018-06-05T12:21:43.112Z,98788.87
2018-06-05T12:24:17.856Z,98788.56
2018-06-05T12:26:52.460Z,98790.69
2018-06-05T12:29:27.004Z,98782.00
2018-06-05T12:32:01.564Z,98780.83
2018-06-05T12:34:36.081Z,98775.20
2018-06-05T12:37:10.536Z,98779.84
2018-06-05T12:39:45.062Z,98771.02
2018-06-05T12:42:19.644Z,98769.23
2018-06-05T12:44:54.240Z,98766.20
2018-06-05T12:47:28.773Z,98765.67
2018-06-05T12:50:03.256Z,98774.17
2018-06-05T12:52:37.785Z,98763.39
2018-06-05T12:55:12.172Z,98763.83
2018-06-05T12:57:46.666Z,98763.73
2018-06-05T13:00:21.215Z,98754.74
2018-06-05T13:02:55.684Z,98763.58
2018-06-05T13:05:30.068Z,98766.08
2018-06-05T13:08:04.486Z,98762.78
2018-06-05T13:10:38.900Z,98769.56
2018-06-05T13:13:13.408Z,98762.44
2018-06-05T13:15:47.796Z,98753.37
2018-06-05T13:18:22.158Z,98757.28
2018-06-05T13:20:56.592Z,98757.56
2018-06-05T13:23:30.984Z,98760.23
2018-06-05T13:26:05.381Z,98757.38
2018-06-05T13:28:39.796Z,98756.19
2018-06-05T13:31:14.612Z,98755.42
2018-06-05T13:33:52.379Z,98749.42
2018-06-05T13:36:26.968Z,98742.11
2018-06-05T13:39:01.541Z,98745.34
2018-06-05T13:41:36.137Z,98743.44
2018-06-05T13:44:10.352Z,98741.16
2018-06-05T13:46:44.820Z,98750.06
2018-06-05T13:49:19.281Z,98739.02
2018-06-05T13:51:54.056Z,98742.30
2018-06-05T13:54:28.529Z,98744.48
2018-06-05T13:57:03.214Z,98741.98
2018-06-05T13:59:37.749Z,98739.50
2018-06-05T14:02:12.100Z,98739.48
2018-06-05T14:04:46.984Z,98733.17
2018-06-05T14:07:21.453Z,98732.91
2018-06-05T14:09:56.243Z,98731.39
2018-06-05T14:12:30.832Z,98742.86
2018-06-05T14:15:05.516Z,98729.80
2018-06-05T14:17:39.908Z,98733.74
2018-06-05T14:20:14.344Z,98727.05
2018-06-05T14:22:48.723Z,98730.80
2018-06-05T14:25:23.292Z,98723.32
2018-06-05T14:27:57.825Z,98723.73
2018-06-05T14:30:32.228Z,98724.25
2018-06-05T14:33:06.596Z,98725.32
2018-06-05T14:35:40.968Z,98724.00
2018-06-05T14:38:15.311Z,98728.69
2018-06-05T14:40:49.908Z,98722.08
2018-06-05T14:43:24.312Z,98727.20
2018-06-05T14:45:58.665Z,98716.52
2018-06-05T14:48:33.113Z,98719.84
2018-06-05T14:51:07.917Z,98709.19
2018-06-05T14:53:42.632Z,98713.53
2018-06-05T14:56:17.477Z,98707.49
2018-06-05T14:58:52.032Z,98718.37
2018-06-05T15:01:26.608Z,98714.11
2018-06-05T15:04:01.092Z,98707.40
2018-06-05T15:06:35.644Z,98699.88
2018-06-05T15:09:09.990Z,98710.39
2018-06-05T15:11:44.304Z,98701.70
2018-06-05T15:14:18.679Z,98706.95
2018-06-05T15:16:54.815Z,98705.85
2018-06-05T15:19:30.033Z,98698.83
2018-06-05T15:22:04.692Z,98698.50
2018-06-05T15:24:39.180Z,98696.69
2018-06-05T15:27:13.548Z,98700.52
2018-06-05T15:29:47.995Z,98701.53
2018-06-05T15:32:22.436Z,98705.50
2018-06-05T15:34:56.746Z,98698.92
2018-06-05T15:37:31.320Z,98701.12
2018-06-05T15:40:06.004Z,98696.36
2018-06-05T15:42:40.394Z,98689.20
2018-06-05T15:45:14.881Z,98692.56
2018-06-05T15:47:49.300Z,98690.98
2018-06-05T15:50:24.127Z,98685.23
2018-06-05T15:52:58.528Z,98686.95
2018-06-05T15:55:32.917Z,98688.56
2018-06-05T15:58:07.598Z,98683.02
2018-06-05T16:00:42.336Z,98679.66
2018-06-05T16:03:17.102Z,98679.04
2018-06-05T16:05:51.660Z,98672.35
2018-06-05T16:08:26.030Z,98671.36
2018-06-05T16:11:00.432Z,98676.08
2018-06-05T16:13:35.009Z,98668.59
2018-06-05T16:16:09.435Z,98669.81
2018-06-05T16:18:43.900Z,98667.41
2018-06-05T16:21:18.388Z,98663.25
2018-06-05T16:23:52.695Z,98667.59
2018-06-05T16:26:27.097Z,98667.49
2018-06-05T16:29:01.407Z,98662.35
2018-06-05T16:31:35.703Z,98670.59
2018-06-05T16:34:10.087Z,98663.82
2018-06-05T16:36:44.400Z,98660.33
2018-06-05T16:39:18.845Z,98657.39
2018-06-05T16:41:53.252Z,98669.11
2018-06-05T16:44:27.698Z,98658.75
2018-06-05T16:47:02.096Z,98654.34
2018-06-05T16:49:36.455Z,98658.67
2018-06-05T16:52:10.823Z,98654.94
2018-06-05T16:54:45.067Z,98654.45
2018-06-05T16:57:19.440Z,98659.59
2018-06-05T16:59:53.740Z,98658.23
2018-06-05T17:02:28.024Z,98658.72
2018-06-05T17:05:02.421Z,98655.95
2018-06-05T17:07:36.791Z,98652.78
2018-06-05T17:10:11.152Z,98649.82
2018-06-05T17:12:45.574Z,98651.02
2018-06-05T17:15:19.939Z,98647.79
2018-06-05T17:17:54.315Z,98651.97
2018-06-05T17:20:28.600Z,98652.74
2018-06-05T17:23:03.179Z,98647.41
2018-06-05T17:25:37.631Z,98651.48
2018-06-05T17:28:12.059Z,98643.42
2018-06-05T17:30:46.444Z,98646.25
2018-06-05T17:33:20.807Z,98646.47
2018-06-05T17:35:55.153Z,98643.65
2018-06-05T17:38:29.564Z,98642.83
2018-06-05T17:41:03.921Z,98655.05
2018-06-05T17:43:38.212Z,98648.48
2018-06-05T17:46:12.583Z,98651.52
2018-06-05T17:48:46.947Z,98644.03
2018-06-05T17:51:21.313Z,98650.07
2018-06-05T17:53:55.887Z,98653.39
2018-06-05T17:56:30.687Z,98645.06
2018-06-05T17:59:04.999Z,98648.66
2018-06-05T18:01:39.516Z,98647.03
2018-06-05T18:04:13.915Z,98651.09
2018-06-05T18:06:48.194Z,98652.34
2018-06-05T18:09:22.591Z,98651.55
2018-06-05T18:11:57.030Z,98660.48
2018-06-05T18:14:31.735Z,98661.72
2018-06-05T18:17:06.311Z,98663.45
2018-06-05T18:19:40.711Z,98671.67
2018-06-05T18:22:14.996Z,98662.02
2018-06-05T18:24:49.436Z,98656.41
2018-06-05T18:27:23.847Z,98657.05
2018-06-05T18:29:58.307Z,98664.00
2018-06-05T18:32:32.589Z,98659.63
2018-06-05T18:35:06.999Z,98669.83
2018-06-05T18:37:41.380Z,98671.35
2018-06-05T18:40:15.859Z,98675.48
2018-06-05T18:42:50.198Z,98672.56
2018-06-05T18:45:24.616Z,98674.55
2018-06-05T18:47:59.066Z,98671.22
2018-06-05T18:50:33.434Z,98673.45
2018-06-05T18:53:07.851Z,98673.45
2018-06-05T18:55:42.304Z,98673.38
2018-06-05T18:58:16.547Z,98671.45
2018-06-05T19:00:50.935Z,98681.08
2018-06-05T19:03:25.211Z,98681.62
2018-06-05T19:05:59.563Z,98682.20
2018-06-05T19:08:33.835Z,98686.08
2018-06-05T19:11:08.175Z,98689.80
2018-06-05T19:13:42.527Z,98687.63
2018-06-05T19:16:29.719Z,98685.13
2018-06-05T19:19:04.104Z,98689.49
2018-06-05T19:21:38.532Z,98681.91
2018-06-05T19:24:12.915Z,98689.87
2018-06-05T19:26:47.303Z,98693.72
2018-06-05T19:29:21.903Z,98693.72
2018-06-05T19:31:56.388Z,98702.77
2018-06-05T19:34:30.705Z,98706.58
2018-06-05T19:37:05.048Z,98705.27
2018-06-05T19:39:39.696Z,98710.29
2018-06-05T19:42:14.470Z,98710.29
2018-06-05T19:44:48.907Z,98714.22
2018-06-05T19:47:23.208Z,98719.08
2018-06-05T19:49:57.575Z,98718.11
2018-06-05T19:52:31.883Z,98718.02
2018-06-05T19:55:06.163Z,98726.97
2018-06-05T19:57:40.576Z,98729.52
2018-06-05T20:00:14.995Z,98723.67
2018-06-05T20:02:49.396Z,98727.58
2018-06-05T20:05:23.720Z,98722.05
2018-06-05T20:07:58.087Z,98724.44
2018-06-05T20:10:32.756Z,98730.59
2018-06-05T20:13:07.121Z,98730.67
2018-06-05T20:15:41.392Z,98728.93
2018-06-05T20:18:15.851Z,98727.04
2018-06-05T20:20:50.425Z,98726.41
2018-06-05T20:23:24.744Z,98728.48
2018-06-05T20:25:59.126Z,98725.17
2018-06-05T20:28:33.536Z,98732.76
2018-06-05T20:31:08.017Z,98735.94
2018-06-05T20:33:42.232Z,98736.45
2018-06-05T20:36:16.567Z,98743.20
2018-06-05T20:38:50.914Z,98743.82
2018-06-05T20:41:25.309Z,98736.02
2018-06-05T20:43:59.722Z,98736.99
2018-06-05T20:46:34.109Z,98733.09
2018-06-05T20:49:08.848Z,98737.21
2018-06-05T20:51:43.007Z,98732.22
2018-06-05T20:54:17.419Z,98740.03
2018-06-05T20:56:51.771Z,98748.56
2018-06-05T20:59:26.100Z,98742.59
2018-06-05T21:02:00.399Z,98746.93
2018-06-05T21:04:34.903Z,98742.59
2018-06-05T21:07:09.367Z,98738.18
2018-06-05T21:09:43.675Z,98748.21
2018-06-05T21:12:18.481Z,98746.14
2018-06-05T21:14:52.635Z,98755.44
2018-06-05T21:17:27.111Z,98751.25
2018-06-05T21:20:01.536Z,98751.31
2018-06-05T21:22:35.907Z,98755.30
2018-06-05T21:25:10.368Z,98752.41
2018-06-05T21:27:44.800Z,98756.67
2018-06-05T21:30:19.535Z,98751.17
2018-06-05T21:32:53.647Z,98761.45
2018-06-05T21:35:28.016Z,98756.76
2018-06-05T21:38:02.304Z,98763.56
2018-06-05T21:40:36.656Z,98761.89
2018-06-05T21:43:11.007Z,98760.73
2018-06-05T21:45:45.384Z,98765.84
2018-06-05T21:48:19.787Z,98762.47
2018-06-05T21:50:54.140Z,98764.50
2018-06-05T21:53:28.491Z,98757.55
2018-06-05T21:56:02.851Z,98750.88
2018-06-05T21:58:37.263Z,98751.78
2018-06-05T22:01:11.612Z,98749.40
2018-06-05T22:03:45.999Z,98746.99
2018-06-05T22:06:20.332Z,98751.39
2018-06-05T22:08:54.632Z,98751.27
2018-06-05T22:11:29.135Z,98751.84
2018-06-05T22:14:04.523Z,98750.91
2018-06-05T22:16:38.903Z,98752.06
2018-06-05T22:19:13.356Z,98755.09
2018-06-05T22:21:47.664Z,98753.28
2018-06-05T22:24:22.101Z,98758.60
2018-06-05T22:26:56.895Z,98754.30
2018-06-05T22:29:31.616Z,98750.75
2018-06-05T22:32:06.007Z,98755.58
2018-06-05T22:34:40.656Z,98751.30
2018-06-05T22:37:15.151Z,98752.45
2018-06-05T22:39:49.479Z,98750.51
2018-06-05T22:42:23.948Z,98752.81
2018-06-05T22:44:58.517Z,98746.53
2018-06-05T22:47:32.957Z,98746.67
2018-06-05T22:50:07.606Z,98747.10
2018-06-05T22:52:42.172Z,98745.95
2018-06-05T22:55:16.565Z,98743.45
2018-06-05T22:57:51.168Z,98744.93
2018-06-05T23:00:30.192Z,98737.94
2018-06-05T23:03:05.105Z,98741.91
2018-06-05T23:05:39.509Z,98743.56
2018-06-05T23:08:13.828Z,98745.20
2018-06-05T23:10:48.317Z,98741.09
2018-06-05T23:13:22.728Z,98742.95
2018-06-05T23:15:57.081Z,98743.25
2018-06-05T23:18:31.612Z,98741.39
2018-06-05T23:21:06.784Z,98738.78
2018-06-05T23:23:41.480Z,98739.14
2018-06-05T23:26:15.989Z,98739.98
2018-06-05T23:28:50.413Z,98740.20
2018-06-05T23:31:24.820Z,98750.11
2018-06-05T23:33:59.369Z,98743.13
2018-06-05T23:36:33.874Z,98753.61
2018-06-05T23:39:08.433Z,98742.44
2018-06-05T23:41:42.841Z,98748.63
2018-06-05T23:44:17.156Z,98745.69
2018-06-05T23:47:13.968Z,98744.15
2018-06-05T23:49:48.456Z,98738.84
2018-06-05T23:52:23.180Z,98748.44
2018-06-05T23:54:57.656Z,98748.00
2018-06-05T23:57:32.113Z,98747.33
